createdAt,value
2023-01-03T00:04:25.512Z,1.60
2023-01-03T00:09:27.100Z,1.70
2023-01-03T00:14:31.907Z,1.70
2023-01-03T00:19:36.276Z,1.73
2023-01-03T00:24:37.950Z,1.50
2023-01-03T00:29:39.521Z,1.63
2023-01-03T00:34:43.851Z,1.47
2023-01-03T00:39:45.504Z,1.30
2023-01-03T00:44:47.148Z,1.40
2023-01-03T00:49:48.747Z,1.47
2023-01-03T00:54:50.305Z,1.60
2023-01-03T00:59:52.587Z,1.40
2023-01-03T01:04:54.216Z,1.30
2023-01-03T01:09:55.933Z,1.50
2023-01-03T01:14:57.464Z,1.30
2023-01-03T01:19:59.090Z,1.47
2023-01-03T01:25:00.923Z,1.30
2023-01-03T01:30:02.618Z,1.60
2023-01-03T01:35:04.425Z,1.60
2023-01-03T01:40:06.356Z,1.57
2023-01-03T01:45:14.403Z,1.30
2023-01-03T01:50:35.927Z,1.30
2023-01-03T01:55:41.905Z,1.50
2023-01-03T02:00:44.933Z,1.43
2023-01-03T02:05:49.339Z,1.33
2023-01-03T02:11:12.705Z,1.40
2023-01-03T02:16:14.234Z,1.30
2023-01-03T02:21:43.000Z,1.50
2023-01-03T02:27:08.362Z,1.40
2023-01-03T02:32:16.878Z,1.50
2023-01-03T02:37:34.402Z,1.40
2023-01-03T02:43:01.809Z,1.43
2023-01-03T02:48:17.107Z,1.60
2023-01-03T02:53:25.244Z,1.57
2023-01-03T02:58:28.941Z,1.40
2023-01-03T03:03:34.090Z,1.70
2023-01-03T03:08:35.864Z,1.67
2023-01-03T03:13:42.011Z,1.50
2023-01-03T03:18:59.035Z,1.93
2023-01-03T03:24:28.196Z,1.57
2023-01-03T03:29:30.009Z,1.40
2023-01-03T03:34:32.520Z,1.33
2023-01-03T03:39:53.213Z,1.43
2023-01-03T03:45:02.171Z,1.40
2023-01-03T03:50:49.544Z,1.53
2023-01-03T03:55:57.186Z,1.67
2023-01-03T04:01:01.263Z,1.60
2023-01-03T04:06:08.843Z,1.50
2023-01-03T04:11:10.443Z,1.53
2023-01-03T04:16:12.092Z,1.20
2023-01-03T04:21:20.177Z,1.30
2023-01-03T04:26:22.479Z,1.40
2023-01-03T04:31:24.214Z,1.30
2023-01-03T04:36:25.970Z,1.30
2023-01-03T04:41:27.621Z,1.20
2023-01-03T04:46:31.320Z,1.27
2023-01-03T04:51:33.142Z,1.23
2023-01-03T04:56:36.991Z,1.40
2023-01-03T05:01:38.711Z,1.30
2023-01-03T05:06:40.315Z,1.27
2023-01-03T05:11:42.235Z,1.40
2023-01-03T05:16:43.897Z,1.27
2023-01-03T05:22:04.070Z,1.40
2023-01-03T05:27:06.076Z,1.30
2023-01-03T05:32:07.790Z,1.60
2023-01-03T05:37:09.530Z,1.50
2023-01-03T05:42:11.077Z,1.40
2023-01-03T05:47:12.810Z,1.33
2023-01-03T05:52:14.355Z,1.20
2023-01-03T05:57:15.845Z,1.60
2023-01-03T06:02:17.546Z,1.30
2023-01-03T06:07:19.147Z,1.30
2023-01-03T06:12:20.743Z,1.40
2023-01-03T06:17:41.178Z,1.30
2023-01-03T06:22:42.821Z,1.57
2023-01-03T06:27:44.529Z,1.80
2023-01-03T06:32:46.146Z,2.00
2023-01-03T06:37:47.767Z,1.80
2023-01-03T06:42:49.339Z,1.93
2023-01-03T06:48:09.434Z,2.10
2023-01-03T06:53:15.770Z,2.10
2023-01-03T06:58:17.525Z,1.77
2023-01-03T07:03:19.138Z,2.07
2023-01-03T07:08:20.847Z,2.03
2023-01-03T07:13:40.989Z,2.73
2023-01-03T07:18:42.711Z,1.97
2023-01-03T07:23:44.304Z,1.90
2023-01-03T07:28:46.156Z,1.93
2023-01-03T07:33:47.653Z,1.97
2023-01-03T07:38:49.279Z,2.00
2023-01-03T07:43:50.814Z,2.10
2023-01-03T07:48:55.076Z,2.00
2023-01-03T07:53:56.675Z,2.07
2023-01-03T07:58:58.290Z,1.80
2023-01-03T08:03:59.817Z,2.10
2023-01-03T08:09:19.978Z,2.03
2023-01-03T08:14:25.673Z,1.90
2023-01-03T08:19:27.865Z,1.73
2023-01-03T08:24:29.476Z,1.90
2023-01-03T08:29:31.248Z,1.97
2023-01-03T08:34:36.272Z,1.70
2023-01-03T08:39:44.403Z,1.80
2023-01-03T08:44:46.955Z,1.60
2023-01-03T08:49:48.455Z,1.70
2023-01-03T08:54:50.252Z,1.80
2023-01-03T08:59:51.805Z,1.83
2023-01-03T09:04:53.508Z,1.67
2023-01-03T09:09:55.185Z,1.70
2023-01-03T09:14:56.829Z,1.67
2023-01-03T09:19:58.427Z,1.50
2023-01-03T09:25:00.023Z,1.87
2023-01-03T09:30:02.231Z,1.43
2023-01-03T09:35:03.948Z,1.50
2023-01-03T09:40:05.997Z,1.70
2023-01-03T09:45:09.166Z,1.43
2023-01-03T09:50:44.426Z,1.90
2023-01-03T09:56:08.583Z,1.50
2023-01-03T10:01:49.989Z,1.60
2023-01-03T10:07:13.690Z,1.50
2023-01-03T10:12:30.367Z,1.70
2023-01-03T10:17:43.936Z,1.80
2023-01-03T10:22:46.801Z,1.40
2023-01-03T10:27:51.903Z,1.40
2023-01-03T10:33:16.096Z,1.30
2023-01-03T10:38:18.454Z,1.30
2023-01-03T10:43:41.161Z,1.57
2023-01-03T10:54:17.864Z,1.30
2023-01-03T10:59:23.426Z,1.50
2023-01-03T11:04:25.414Z,1.33
2023-01-03T11:09:34.011Z,1.50
2023-01-03T11:14:36.047Z,1.10
2023-01-03T11:19:37.624Z,1.20
2023-01-03T11:25:04.224Z,1.30
2023-01-03T11:30:06.625Z,1.30
2023-01-03T11:35:45.837Z,1.20
2023-01-03T11:41:11.504Z,1.27
2023-01-03T11:46:46.031Z,1.10
2023-01-03T11:52:16.441Z,1.47
2023-01-03T11:57:31.311Z,1.40
2023-01-03T12:02:47.876Z,1.20
2023-01-03T12:07:59.622Z,1.27
2023-01-03T12:13:06.671Z,1.50
2023-01-03T12:18:16.059Z,1.23
2023-01-03T12:24:02.749Z,1.00
2023-01-03T12:29:14.865Z,1.20
2023-01-03T12:34:22.545Z,1.17
2023-01-03T12:39:49.737Z,0.83
2023-01-03T12:45:00.195Z,0.87
2023-01-03T12:50:07.013Z,0.63
2023-01-03T12:55:38.149Z,1.07
2023-01-03T13:00:39.689Z,0.67
2023-01-03T13:05:47.816Z,0.80
2023-01-03T13:10:52.232Z,0.73
2023-01-03T13:15:54.149Z,0.97
2023-01-03T13:20:56.069Z,0.70
2023-01-03T13:26:07.805Z,0.63
2023-01-03T13:31:17.165Z,0.80
2023-01-03T13:36:19.603Z,0.90
2023-01-03T13:41:38.127Z,0.93
2023-01-03T13:46:39.763Z,0.97
2023-01-03T13:51:41.581Z,0.80
2023-01-03T13:56:43.022Z,0.93
2023-01-03T14:02:08.842Z,1.00
2023-01-03T14:07:22.808Z,1.00
2023-01-03T14:12:45.833Z,0.80
2023-01-03T14:17:50.052Z,0.90
2023-01-03T14:22:52.778Z,0.87
2023-01-03T14:27:54.405Z,1.17
2023-01-03T14:32:55.985Z,0.80
2023-01-03T14:38:01.890Z,0.97
2023-01-03T14:43:06.433Z,0.83
2023-01-03T14:48:08.065Z,0.70
2023-01-03T14:53:11.183Z,1.10
2023-01-03T14:58:33.372Z,0.90
2023-01-03T15:03:37.741Z,0.87
2023-01-03T15:08:42.367Z,0.90
2023-01-03T15:13:46.839Z,0.90
2023-01-03T15:18:49.220Z,1.00
2023-01-03T15:23:53.818Z,1.00
2023-01-03T15:29:05.560Z,1.20
2023-01-03T15:34:16.638Z,0.80
2023-01-03T15:39:23.723Z,1.30
2023-01-03T15:44:26.829Z,1.30
2023-01-03T15:49:29.004Z,1.87
2023-01-03T15:54:31.223Z,1.50
2023-01-03T15:59:41.303Z,1.40
2023-01-03T16:04:46.225Z,1.70
2023-01-03T16:09:47.887Z,1.40
2023-01-03T16:14:51.776Z,1.67
2023-01-03T16:19:53.872Z,1.20
2023-01-03T16:24:55.406Z,1.20
2023-01-03T16:29:56.955Z,1.40
2023-01-03T16:35:05.539Z,1.43
2023-01-03T16:40:14.257Z,1.60
2023-01-03T16:45:17.371Z,1.73
2023-01-03T16:50:20.213Z,1.20
2023-01-03T16:55:27.355Z,1.20
2023-01-03T17:00:31.521Z,1.43
2023-01-03T17:05:35.274Z,1.20
2023-01-03T17:10:41.755Z,1.60
2023-01-03T17:15:43.307Z,1.53
2023-01-03T17:20:44.971Z,1.63
2023-01-03T17:25:47.465Z,1.43
2023-01-03T17:30:51.114Z,2.10
2023-01-03T17:35:53.216Z,1.50
2023-01-03T17:40:56.460Z,1.50
2023-01-03T17:46:23.431Z,1.40
2023-01-03T17:51:25.671Z,1.50
2023-01-03T17:56:27.597Z,1.53
2023-01-03T18:01:29.304Z,1.57
2023-01-03T18:06:31.010Z,1.70
2023-01-03T18:11:32.602Z,1.67
2023-01-03T18:16:34.160Z,1.60
2023-01-03T18:21:35.882Z,1.70
2023-01-03T18:26:40.878Z,1.80
2023-01-03T18:31:44.205Z,1.53
2023-01-03T18:36:50.311Z,1.80
2023-01-03T18:41:52.118Z,1.80
2023-01-03T18:46:53.879Z,1.73
2023-01-03T18:51:55.724Z,1.97
2023-01-03T18:56:57.318Z,1.87
2023-01-03T19:01:59.048Z,2.30
2023-01-03T19:07:00.755Z,1.90
2023-01-03T19:12:02.391Z,2.50
2023-01-03T19:17:10.495Z,2.73
2023-01-03T19:22:33.887Z,1.90
2023-01-03T19:27:37.734Z,1.70
2023-01-03T19:32:39.600Z,1.63
2023-01-03T19:37:41.151Z,1.60
2023-01-03T19:42:52.637Z,1.63
2023-01-03T19:47:55.149Z,1.60
2023-01-03T19:52:56.768Z,1.70
2023-01-03T19:58:00.382Z,1.70
2023-01-03T20:03:03.615Z,1.73
2023-01-03T20:08:12.232Z,1.60
2023-01-03T20:13:17.646Z,1.50
2023-01-03T20:18:27.934Z,1.67
2023-01-03T20:23:34.237Z,1.60
2023-01-03T20:28:35.818Z,1.50
2023-01-03T20:33:37.382Z,1.60
2023-01-03T20:38:40.841Z,1.60
2023-01-03T20:43:43.760Z,1.80
2023-01-03T20:48:50.510Z,1.70
2023-01-03T20:53:55.138Z,1.90
2023-01-03T20:58:58.253Z,1.80
2023-01-03T21:03:59.855Z,1.57
2023-01-03T21:09:01.408Z,1.70
2023-01-03T21:14:03.905Z,1.90
2023-01-03T21:19:14.221Z,1.90
2023-01-03T21:24:17.401Z,1.50
2023-01-03T21:29:19.047Z,1.50
2023-01-03T21:34:21.664Z,1.77
2023-01-03T21:39:23.289Z,1.40
2023-01-03T21:44:24.979Z,1.73
2023-01-03T21:49:26.549Z,1.90
2023-01-03T21:54:28.127Z,1.70
2023-01-03T21:59:30.443Z,1.70
2023-01-03T22:04:32.458Z,1.70
2023-01-03T22:09:52.670Z,2.07
2023-01-03T22:14:54.359Z,1.83
2023-01-03T22:19:57.470Z,1.70
2023-01-03T22:24:59.068Z,1.90
2023-01-03T22:30:01.369Z,1.70
2023-01-03T22:35:03.979Z,1.87
2023-01-03T22:40:07.488Z,1.80
2023-01-03T22:45:09.837Z,1.60
2023-01-03T22:50:11.691Z,1.40
2023-01-03T22:55:13.217Z,1.40
2023-01-03T23:00:15.139Z,1.80
2023-01-03T23:05:18.173Z,1.53
2023-01-03T23:10:19.773Z,1.37
2023-01-03T23:15:21.279Z,1.37
2023-01-03T23:20:31.974Z,1.77
2023-01-03T23:25:35.418Z,1.60
2023-01-03T23:30:37.090Z,1.50
2023-01-03T23:35:39.076Z,1.50
2023-01-03T23:40:41.941Z,1.50
2023-01-03T23:45:43.493Z,1.70
2023-01-03T23:50:45.112Z,1.80
2023-01-03T23:55:46.749Z,1.60
